sensor_id;sensor_type;location;lat;lon;timestamp;pressure;altitude;pressure_sealevel;temperature;humidity
3082;BME280;1551;51.046;7.010;2022-08-06T00:01:01;101810.34;;;18.72;57.59
3082;BME280;1551;51.046;7.010;2022-08-06T00:03:50;101808.41;;;18.46;57.39
3082;BME280;1551;51.046;7.010;2022-08-06T00:06:39;101814.47;;;18.45;58.60
3082;BME280;1551;51.046;7.010;2022-08-06T00:09:28;101817.28;;;18.36;58.88
3082;BME280;1551;51.046;7.010;2022-08-06T00:12:18;101820.16;;;18.24;58.50
3082;BME280;1551;51.046;7.010;2022-08-06T00:15:08;101814.25;;;18.18;58.71
3082;BME280;1551;51.046;7.010;2022-08-06T00:17:57;101811.38;;;18.30;58.77
3082;BME280;1551;51.046;7.010;2022-08-06T00:20:46;101811.66;;;18.18;58.28
3082;BME280;1551;51.046;7.010;2022-08-06T00:23:34;101813.72;;;18.05;58.91
3082;BME280;1551;51.046;7.010;2022-08-06T00:26:23;101808.03;;;17.88;59.03
3082;BME280;1551;51.046;7.010;2022-08-06T00:29:13;101809.06;;;17.81;60.07
3082;BME280;1551;51.046;7.010;2022-08-06T00:32:02;101818.75;;;18.11;59.47
3082;BME280;1551;51.046;7.010;2022-08-06T00:34:51;101817.53;;;18.26;58.74
3082;BME280;1551;51.046;7.010;2022-08-06T00:37:40;101811.03;;;18.08;58.99
3082;BME280;1551;51.046;7.010;2022-08-06T00:40:29;101821.47;;;18.05;59.52
3082;BME280;1551;51.046;7.010;2022-08-06T00:43:18;101813.38;;;18.19;59.02
3082;BME280;1551;51.046;7.010;2022-08-06T00:46:08;101821.75;;;17.93;60.49
3082;BME280;1551;51.046;7.010;2022-08-06T00:48:57;101819.19;;;17.92;60.12
3082;BME280;1551;51.046;7.010;2022-08-06T00:51:46;101821.75;;;17.93;60.01
3082;BME280;1551;51.046;7.010;2022-08-06T00:54:35;101827.84;;;17.91;59.75
3082;BME280;1551;51.046;7.010;2022-08-06T00:57:24;101824.06;;;17.65;60.10
3082;BME280;1551;51.046;7.010;2022-08-06T01:00:13;101830.66;;;17.80;61.02
3082;BME280;1551;51.046;7.010;2022-08-06T01:03:02;101832.94;;;17.94;60.65
3082;BME280;1551;51.046;7.010;2022-08-06T01:05:51;101827.31;;;17.75;60.41
3082;BME280;1551;51.046;7.010;2022-08-06T01:08:40;101835.53;;;17.55;60.04
3082;BME280;1551;51.046;7.010;2022-08-06T01:11:29;101840.75;;;17.51;61.48
3082;BME280;1551;51.046;7.010;2022-08-06T01:14:18;101842.75;;;17.37;61.23
3082;BME280;1551;51.046;7.010;2022-08-06T01:20:19;101841.53;;;17.10;62.95
3082;BME280;1551;51.046;7.010;2022-08-06T01:23:20;101850.75;;;16.77;64.00
3082;BME280;1551;51.046;7.010;2022-08-06T01:29:38;101849.00;;;16.79;64.50
3082;BME280;1551;51.046;7.010;2022-08-06T01:32:31;101855.13;;;16.74;64.79
3082;BME280;1551;51.046;7.010;2022-08-06T01:35:26;101863.25;;;16.51;65.38
3082;BME280;1551;51.046;7.010;2022-08-06T01:38:22;101856.50;;;16.39;65.27
3082;BME280;1551;51.046;7.010;2022-08-06T01:41:16;101855.69;;;16.37;66.71
3082;BME280;1551;51.046;7.010;2022-08-06T01:44:33;101854.47;;;17.10;65.35
3082;BME280;1551;51.046;7.010;2022-08-06T01:47:24;101863.69;;;17.25;64.04
3082;BME280;1551;51.046;7.010;2022-08-06T01:50:17;101862.16;;;17.14;64.53
3082;BME280;1551;51.046;7.010;2022-08-06T01:53:12;101862.59;;;16.90;64.25
3082;BME280;1551;51.046;7.010;2022-08-06T01:56:03;101866.31;;;16.74;65.73
3082;BME280;1551;51.046;7.010;2022-08-06T01:58:54;101860.13;;;16.84;64.81
3082;BME280;1551;51.046;7.010;2022-08-06T02:01:47;101866.66;;;16.53;65.54
3082;BME280;1551;51.046;7.010;2022-08-06T02:04:40;101873.50;;;16.56;66.18
3082;BME280;1551;51.046;7.010;2022-08-06T02:07:34;101874.44;;;16.48;66.23
3082;BME280;1551;51.046;7.010;2022-08-06T02:10:24;101879.38;;;16.67;66.32
3082;BME280;1551;51.046;7.010;2022-08-06T02:13:17;101870.13;;;16.52;66.30
3082;BME280;1551;51.046;7.010;2022-08-06T02:16:10;101875.19;;;16.58;67.30
3082;BME280;1551;51.046;7.010;2022-08-06T02:19:02;101885.31;;;16.73;66.02
3082;BME280;1551;51.046;7.010;2022-08-06T02:21:53;101883.31;;;16.89;65.55
3082;BME280;1551;51.046;7.010;2022-08-06T02:24:44;101884.91;;;16.96;66.02
3082;BME280;1551;51.046;7.010;2022-08-06T02:27:36;101881.63;;;16.88;65.55
3082;BME280;1551;51.046;7.010;2022-08-06T02:30:31;101880.47;;;16.49;65.92
3082;BME280;1551;51.046;7.010;2022-08-06T02:33:21;101883.25;;;16.37;67.62
3082;BME280;1551;51.046;7.010;2022-08-06T02:36:14;101887.63;;;16.32;66.82
3082;BME280;1551;51.046;7.010;2022-08-06T02:39:13;101884.31;;;16.24;68.42
3082;BME280;1551;51.046;7.010;2022-08-06T02:42:32;101884.69;;;16.58;68.10
3082;BME280;1551;51.046;7.010;2022-08-06T02:48:47;101889.16;;;16.45;67.46
3082;BME280;1551;51.046;7.010;2022-08-06T02:51:41;101902.88;;;16.50;67.68
3082;BME280;1551;51.046;7.010;2022-08-06T02:54:40;101904.81;;;16.91;66.84
3082;BME280;1551;51.046;7.010;2022-08-06T02:57:34;101898.31;;;16.67;66.02
3082;BME280;1551;51.046;7.010;2022-08-06T03:00:25;101899.81;;;16.24;66.91
3082;BME280;1551;51.046;7.010;2022-08-06T03:03:17;101901.81;;;16.02;67.57
3082;BME280;1551;51.046;7.010;2022-08-06T03:06:09;101908.88;;;15.91;68.06
3082;BME280;1551;51.046;7.010;2022-08-06T03:09:03;101907.03;;;16.01;68.76
3082;BME280;1551;51.046;7.010;2022-08-06T03:11:53;101906.94;;;16.07;67.78
3082;BME280;1551;51.046;7.010;2022-08-06T03:14:44;101902.88;;;15.88;68.03
3082;BME280;1551;51.046;7.010;2022-08-06T03:17:34;101914.94;;;15.86;69.13
3082;BME280;1551;51.046;7.010;2022-08-06T03:20:25;101916.66;;;15.85;68.92
3082;BME280;1551;51.046;7.010;2022-08-06T03:23:15;101915.72;;;15.92;69.44
3082;BME280;1551;51.046;7.010;2022-08-06T03:26:05;101922.63;;;17.58;67.84
3082;BME280;1551;51.046;7.010;2022-08-06T03:28:58;101912.38;;;18.34;65.04
3082;BME280;1551;51.046;7.010;2022-08-06T03:31:49;101916.88;;;18.66;63.60
3082;BME280;1551;51.046;7.010;2022-08-06T03:34:38;101927.88;;;18.74;62.13
3082;BME280;1551;51.046;7.010;2022-08-06T03:37:29;101917.69;;;18.67;61.87
3082;BME280;1551;51.046;7.010;2022-08-06T03:40:20;101927.66;;;18.85;61.29
3082;BME280;1551;51.046;7.010;2022-08-06T03:43:10;101930.06;;;18.91;59.85
3082;BME280;1551;51.046;7.010;2022-08-06T03:46:01;101937.75;;;18.60;59.75
3082;BME280;1551;51.046;7.010;2022-08-06T03:48:52;101943.97;;;18.88;59.64
3082;BME280;1551;51.046;7.010;2022-08-06T03:51:42;101941.03;;;19.02;58.46
3082;BME280;1551;51.046;7.010;2022-08-06T03:54:35;101935.72;;;19.06;58.28
3082;BME280;1551;51.046;7.010;2022-08-06T03:57:27;101932.97;;;18.02;58.16
3082;BME280;1551;51.046;7.010;2022-08-06T04:00:21;101938.22;;;17.04;60.64
3082;BME280;1551;51.046;7.010;2022-08-06T04:03:12;101949.41;;;16.52;63.13
3082;BME280;1551;51.046;7.010;2022-08-06T04:06:03;101941.09;;;16.28;64.44
3082;BME280;1551;51.046;7.010;2022-08-06T04:08:52;101944.34;;;15.74;65.78
3082;BME280;1551;51.046;7.010;2022-08-06T04:11:42;101948.94;;;15.46;67.25
3082;BME280;1551;51.046;7.010;2022-08-06T04:14:33;101948.22;;;15.28;68.16
3082;BME280;1551;51.046;7.010;2022-08-06T04:17:23;101942.25;;;15.23;69.09
3082;BME280;1551;51.046;7.010;2022-08-06T04:20:16;101947.19;;;15.51;70.46
3082;BME280;1551;51.046;7.010;2022-08-06T04:23:05;101947.50;;;16.64;68.52
3082;BME280;1551;51.046;7.010;2022-08-06T04:25:57;101949.53;;;16.99;65.49
3082;BME280;1551;51.046;7.010;2022-08-06T04:28:50;101952.84;;;16.52;65.70
3082;BME280;1551;51.046;7.010;2022-08-06T04:31:42;101953.91;;;16.34;67.64
3082;BME280;1551;51.046;7.010;2022-08-06T04:34:33;101966.22;;;16.80;66.59
3082;BME280;1551;51.046;7.010;2022-08-06T04:37:23;101957.78;;;16.69;65.97
3082;BME280;1551;51.046;7.010;2022-08-06T04:40:13;101960.38;;;16.69;66.25
3082;BME280;1551;51.046;7.010;2022-08-06T04:43:07;101961.25;;;16.65;65.53
3082;BME280;1551;51.046;7.010;2022-08-06T04:45:57;101970.69;;;16.02;65.85
3082;BME280;1551;51.046;7.010;2022-08-06T04:48:47;101953.84;;;15.69;66.51
3082;BME280;1551;51.046;7.010;2022-08-06T04:51:37;101983.84;;;15.82;68.16
3082;BME280;1551;51.046;7.010;2022-08-06T04:54:26;101980.31;;;15.89;68.33
3082;BME280;1551;51.046;7.010;2022-08-06T04:57:16;101973.84;;;16.25;67.84
3082;BME280;1551;51.046;7.010;2022-08-06T05:00:05;101979.97;;;16.19;67.00
3082;BME280;1551;51.046;7.010;2022-08-06T05:02:54;101976.97;;;16.49;67.52
3082;BME280;1551;51.046;7.010;2022-08-06T05:05:50;101985.53;;;16.56;66.12
3082;BME280;1551;51.046;7.010;2022-08-06T05:08:42;101982.19;;;16.48;66.96
3082;BME280;1551;51.046;7.010;2022-08-06T05:11:41;101984.47;;;16.71;66.35
3082;BME280;1551;51.046;7.010;2022-08-06T05:14:37;101986.72;;;16.90;66.79
3082;BME280;1551;51.046;7.010;2022-08-06T05:17:38;101992.06;;;17.33;64.53
3082;BME280;1551;51.046;7.010;2022-08-06T05:20:33;101994.53;;;16.89;64.59
3082;BME280;1551;51.046;7.010;2022-08-06T05:23:27;101993.78;;;17.34;65.30
3082;BME280;1551;51.046;7.010;2022-08-06T05:26:18;101996.91;;;17.01;64.23
3082;BME280;1551;51.046;7.010;2022-08-06T05:29:07;102005.16;;;16.71;65.73
3082;BME280;1551;51.046;7.010;2022-08-06T05:31:59;101996.31;;;16.84;65.84
3082;BME280;1551;51.046;7.010;2022-08-06T05:34:48;102006.31;;;18.04;64.80
3082;BME280;1551;51.046;7.010;2022-08-06T05:37:37;101984.91;;;18.76;61.69
3082;BME280;1551;51.046;7.010;2022-08-06T05:40:27;102012.03;;;19.36;59.89
3082;BME280;1551;51.046;7.010;2022-08-06T05:43:22;102013.53;;;19.45;58.86
3082;BME280;1551;51.046;7.010;2022-08-06T05:46:20;102008.78;;;19.60;58.33
3082;BME280;1551;51.046;7.010;2022-08-06T05:49:13;102017.31;;;19.65;58.24
3082;BME280;1551;51.046;7.010;2022-08-06T05:52:19;102018.00;;;19.72;57.50
3082;BME280;1551;51.046;7.010;2022-08-06T05:58:02;102027.50;;;19.41;57.60
3082;BME280;1551;51.046;7.010;2022-08-06T06:00:52;102020.44;;;19.10;57.84
3082;BME280;1551;51.046;7.010;2022-08-06T06:03:42;102026.31;;;18.82;58.71
3082;BME280;1551;51.046;7.010;2022-08-06T06:06:32;102025.44;;;18.41;58.52
3082;BME280;1551;51.046;7.010;2022-08-06T06:09:21;102024.44;;;18.48;60.37
3082;BME280;1551;51.046;7.010;2022-08-06T06:12:11;102025.47;;;18.80;58.84
3082;BME280;1551;51.046;7.010;2022-08-06T06:15:02;102040.00;;;18.48;58.93
3082;BME280;1551;51.046;7.010;2022-08-06T06:20:57;102041.13;;;18.34;59.81
3082;BME280;1551;51.046;7.010;2022-08-06T06:23:54;102038.88;;;18.60;58.79
3082;BME280;1551;51.046;7.010;2022-08-06T06:27:01;102031.44;;;18.85;59.75
3082;BME280;1551;51.046;7.010;2022-08-06T06:30:07;102025.00;;;19.01;59.32
3082;BME280;1551;51.046;7.010;2022-08-06T06:33:27;102034.06;;;19.20;58.18
3082;BME280;1551;51.046;7.010;2022-08-06T06:36:21;102036.00;;;19.79;58.02
3082;BME280;1551;51.046;7.010;2022-08-06T06:39:28;102043.75;;;20.12;56.75
3082;BME280;1551;51.046;7.010;2022-08-06T06:42:30;102044.88;;;20.03;55.44
3082;BME280;1551;51.046;7.010;2022-08-06T06:45:36;102046.47;;;20.09;56.11
3082;BME280;1551;51.046;7.010;2022-08-06T06:48:33;102052.28;;;20.49;55.68
3082;BME280;1551;51.046;7.010;2022-08-06T06:51:39;102057.38;;;20.81;54.69
3082;BME280;1551;51.046;7.010;2022-08-06T06:54:32;102058.75;;;20.91;53.12
3082;BME280;1551;51.046;7.010;2022-08-06T06:57:29;102057.47;;;21.06;52.87
3082;BME280;1551;51.046;7.010;2022-08-06T07:00:20;102058.03;;;21.15;53.11
3082;BME280;1551;51.046;7.010;2022-08-06T07:03:10;102065.53;;;21.26;52.05
3082;BME280;1551;51.046;7.010;2022-08-06T07:06:01;102075.47;;;21.66;52.02
3082;BME280;1551;51.046;7.010;2022-08-06T07:08:52;102075.66;;;22.11;50.95
3082;BME280;1551;51.046;7.010;2022-08-06T07:11:48;102082.94;;;22.26;50.47
3082;BME280;1551;51.046;7.010;2022-08-06T07:14:38;102080.16;;;22.53;50.07
3082;BME280;1551;51.046;7.010;2022-08-06T07:17:30;102079.34;;;22.51;49.24
3082;BME280;1551;51.046;7.010;2022-08-06T07:20:26;102086.75;;;22.64;48.86
3082;BME280;1551;51.046;7.010;2022-08-06T07:23:15;102091.09;;;22.86;47.85
3082;BME280;1551;51.046;7.010;2022-08-06T07:26:06;102101.34;;;22.91;48.21
3082;BME280;1551;51.046;7.010;2022-08-06T07:28:55;102095.16;;;22.93;48.28
3082;BME280;1551;51.046;7.010;2022-08-06T07:31:46;102082.69;;;23.23;47.46
3082;BME280;1551;51.046;7.010;2022-08-06T07:34:36;102079.50;;;23.15;47.53
3082;BME280;1551;51.046;7.010;2022-08-06T07:37:26;102082.88;;;23.18;46.59
3082;BME280;1551;51.046;7.010;2022-08-06T07:40:22;102084.56;;;23.41;47.03
3082;BME280;1551;51.046;7.010;2022-08-06T07:43:17;102090.00;;;23.57;45.65
3082;BME280;1551;51.046;7.010;2022-08-06T07:46:08;102083.00;;;23.37;45.70
3082;BME280;1551;51.046;7.010;2022-08-06T07:49:04;102076.22;;;23.53;45.77
3082;BME280;1551;51.046;7.010;2022-08-06T07:51:54;102087.72;;;23.27;45.47
3082;BME280;1551;51.046;7.010;2022-08-06T07:54:46;102092.69;;;23.12;46.25
3082;BME280;1551;51.046;7.010;2022-08-06T07:57:35;102090.50;;;23.45;45.69
3082;BME280;1551;51.046;7.010;2022-08-06T08:00:25;102084.06;;;23.73;45.20
3082;BME280;1551;51.046;7.010;2022-08-06T08:03:15;102078.78;;;23.95;44.99
3082;BME280;1551;51.046;7.010;2022-08-06T08:06:24;102083.22;;;24.52;44.43
3082;BME280;1551;51.046;7.010;2022-08-06T08:09:16;102083.50;;;24.83;43.56
3082;BME280;1551;51.046;7.010;2022-08-06T08:12:06;102081.41;;;24.71;41.83
3082;BME280;1551;51.046;7.010;2022-08-06T08:14:56;102086.03;;;24.29;41.18
3082;BME280;1551;51.046;7.010;2022-08-06T08:17:46;102087.84;;;24.45;41.90
3082;BME280;1551;51.046;7.010;2022-08-06T08:20:37;102089.88;;;24.59;41.41
3082;BME280;1551;51.046;7.010;2022-08-06T08:23:29;102092.88;;;24.31;41.61
3082;BME280;1551;51.046;7.010;2022-08-06T08:26:19;102088.88;;;24.43;39.42
3082;BME280;1551;51.046;7.010;2022-08-06T08:29:08;102082.84;;;24.78;39.00
3082;BME280;1551;51.046;7.010;2022-08-06T08:31:58;102084.59;;;25.15;38.79
3082;BME280;1551;51.046;7.010;2022-08-06T08:34:47;102092.38;;;25.52;38.71
3082;BME280;1551;51.046;7.010;2022-08-06T08:37:36;102091.44;;;25.53;38.62
3082;BME280;1551;51.046;7.010;2022-08-06T08:40:26;102076.69;;;25.34;39.46
3082;BME280;1551;51.046;7.010;2022-08-06T08:43:23;102080.38;;;25.30;38.87
3082;BME280;1551;51.046;7.010;2022-08-06T08:46:13;102083.16;;;25.26;39.91
3082;BME280;1551;51.046;7.010;2022-08-06T08:49:03;102076.94;;;25.63;37.02
3082;BME280;1551;51.046;7.010;2022-08-06T08:51:53;102086.72;;;25.77;37.58
3082;BME280;1551;51.046;7.010;2022-08-06T08:54:50;102081.25;;;25.81;37.96
3082;BME280;1551;51.046;7.010;2022-08-06T08:57:40;102080.66;;;25.59;37.34
3082;BME280;1551;51.046;7.010;2022-08-06T09:00:29;102078.97;;;26.08;36.56
3082;BME280;1551;51.046;7.010;2022-08-06T09:03:18;102092.38;;;26.36;35.34
3082;BME280;1551;51.046;7.010;2022-08-06T09:06:07;102085.94;;;26.42;34.06
3082;BME280;1551;51.046;7.010;2022-08-06T09:09:00;102083.16;;;26.60;33.72
3082;BME280;1551;51.046;7.010;2022-08-06T09:11:52;102090.84;;;26.63;34.57
3082;BME280;1551;51.046;7.010;2022-08-06T09:14:42;102100.97;;;26.23;35.03
3082;BME280;1551;51.046;7.010;2022-08-06T09:17:34;102087.56;;;25.94;35.90
3082;BME280;1551;51.046;7.010;2022-08-06T09:20:23;102090.97;;;25.79;35.31
3082;BME280;1551;51.046;7.010;2022-08-06T09:23:13;102086.59;;;25.46;36.31
3082;BME280;1551;51.046;7.010;2022-08-06T09:26:05;102077.69;;;25.31;36.97
3082;BME280;1551;51.046;7.010;2022-08-06T09:28:54;102083.22;;;25.44;38.22
3082;BME280;1551;51.046;7.010;2022-08-06T09:31:43;102079.41;;;25.66;36.62
3082;BME280;1551;51.046;7.010;2022-08-06T09:34:34;102087.53;;;25.79;36.65
3082;BME280;1551;51.046;7.010;2022-08-06T09:37:30;102081.47;;;25.77;36.43
3082;BME280;1551;51.046;7.010;2022-08-06T09:40:19;102094.50;;;25.95;34.69
3082;BME280;1551;51.046;7.010;2022-08-06T09:43:25;102094.06;;;26.37;35.63
3082;BME280;1551;51.046;7.010;2022-08-06T09:46:15;102094.59;;;26.59;34.22
3082;BME280;1551;51.046;7.010;2022-08-06T09:49:05;102090.56;;;27.01;32.90
3082;BME280;1551;51.046;7.010;2022-08-06T09:52:14;102091.19;;;26.75;33.34
3082;BME280;1551;51.046;7.010;2022-08-06T09:55:04;102086.19;;;27.31;32.31
3082;BME280;1551;51.046;7.010;2022-08-06T09:57:54;102088.72;;;27.33;33.14
3082;BME280;1551;51.046;7.010;2022-08-06T10:00:43;102097.66;;;27.60;32.69
3082;BME280;1551;51.046;7.010;2022-08-06T10:03:38;102077.41;;;27.90;31.89
3082;BME280;1551;51.046;7.010;2022-08-06T10:06:27;102090.50;;;27.91;32.09
3082;BME280;1551;51.046;7.010;2022-08-06T10:09:16;102099.19;;;28.08;31.46
3082;BME280;1551;51.046;7.010;2022-08-06T10:12:19;102095.59;;;28.51;31.06
3082;BME280;1551;51.046;7.010;2022-08-06T10:15:09;102103.53;;;28.37;31.47
3082;BME280;1551;51.046;7.010;2022-08-06T10:17:57;102095.91;;;27.74;32.22
3082;BME280;1551;51.046;7.010;2022-08-06T10:21:04;102088.63;;;26.89;32.65
3082;BME280;1551;51.046;7.010;2022-08-06T10:23:55;102095.75;;;26.54;32.63
3082;BME280;1551;51.046;7.010;2022-08-06T10:26:47;102092.97;;;27.35;32.02
3082;BME280;1551;51.046;7.010;2022-08-06T10:29:40;102096.59;;;27.48;31.25
3082;BME280;1551;51.046;7.010;2022-08-06T10:32:52;102097.56;;;26.69;32.62
3082;BME280;1551;51.046;7.010;2022-08-06T10:35:42;102096.34;;;26.76;32.50
3082;BME280;1551;51.046;7.010;2022-08-06T10:38:35;102090.97;;;27.09;32.81
3082;BME280;1551;51.046;7.010;2022-08-06T10:41:25;102101.72;;;27.20;32.11
3082;BME280;1551;51.046;7.010;2022-08-06T10:44:16;102098.72;;;26.48;33.21
3082;BME280;1551;51.046;7.010;2022-08-06T10:47:06;102086.50;;;26.80;32.56
3082;BME280;1551;51.046;7.010;2022-08-06T10:49:56;102092.50;;;28.02;30.93
3082;BME280;1551;51.046;7.010;2022-08-06T10:52:46;102084.13;;;28.52;29.33
3082;BME280;1551;51.046;7.010;2022-08-06T10:55:36;102077.19;;;28.37;30.72
3082;BME280;1551;51.046;7.010;2022-08-06T10:58:25;102079.56;;;28.82;29.38
3082;BME280;1551;51.046;7.010;2022-08-06T11:04:34;102092.84;;;30.24;27.28
3082;BME280;1551;51.046;7.010;2022-08-06T11:14:04;102068.91;;;30.87;26.69
3082;BME280;1551;51.046;7.010;2022-08-06T11:16:56;102078.13;;;30.32;26.56
3082;BME280;1551;51.046;7.010;2022-08-06T11:19:48;102070.91;;;30.96;26.00
3082;BME280;1551;51.046;7.010;2022-08-06T11:22:39;102070.63;;;30.88;25.95
3082;BME280;1551;51.046;7.010;2022-08-06T11:25:40;102075.53;;;30.20;27.54
3082;BME280;1551;51.046;7.010;2022-08-06T11:31:33;102060.53;;;27.05;30.18
3082;BME280;1551;51.046;7.010;2022-08-06T11:34:40;102058.56;;;26.46;31.91
3082;BME280;1551;51.046;7.010;2022-08-06T11:37:42;102062.59;;;28.03;29.17
3082;BME280;1551;51.046;7.010;2022-08-06T11:40:58;102058.78;;;29.44;28.13
3082;BME280;1551;51.046;7.010;2022-08-06T11:46:44;102058.31;;;29.76;27.64
3082;BME280;1551;51.046;7.010;2022-08-06T11:49:35;102058.88;;;30.55;26.79
3082;BME280;1551;51.046;7.010;2022-08-06T11:55:19;102057.28;;;30.53;26.46
3082;BME280;1551;51.046;7.010;2022-08-06T12:01:07;102069.03;;;30.85;26.48
3082;BME280;1551;51.046;7.010;2022-08-06T12:03:56;102066.03;;;29.92;26.93
3082;BME280;1551;51.046;7.010;2022-08-06T12:06:45;102055.56;;;28.73;27.72
3082;BME280;1551;51.046;7.010;2022-08-06T12:09:37;102055.38;;;27.63;30.19
3082;BME280;1551;51.046;7.010;2022-08-06T12:12:31;102051.16;;;26.85;30.65
3082;BME280;1551;51.046;7.010;2022-08-06T12:18:17;102046.03;;;26.67;31.35
3082;BME280;1551;51.046;7.010;2022-08-06T12:21:09;102049.69;;;27.99;29.65
3082;BME280;1551;51.046;7.010;2022-08-06T12:23:59;102048.00;;;29.34;27.64
3082;BME280;1551;51.046;7.010;2022-08-06T12:26:48;102056.31;;;29.92;26.74
3082;BME280;1551;51.046;7.010;2022-08-06T12:29:38;102054.19;;;30.35;25.71
3082;BME280;1551;51.046;7.010;2022-08-06T12:32:31;102047.19;;;30.34;26.13
3082;BME280;1551;51.046;7.010;2022-08-06T12:35:20;102039.69;;;30.16;25.80
3082;BME280;1551;51.046;7.010;2022-08-06T12:38:12;102039.94;;;29.87;25.92
3082;BME280;1551;51.046;7.010;2022-08-06T12:41:08;102035.91;;;29.69;26.86
3082;BME280;1551;51.046;7.010;2022-08-06T12:43:58;102027.03;;;30.08;26.46
3082;BME280;1551;51.046;7.010;2022-08-06T12:46:46;102036.63;;;30.22;26.41
3082;BME280;1551;51.046;7.010;2022-08-06T12:49:35;102032.88;;;30.01;26.49
3082;BME280;1551;51.046;7.010;2022-08-06T12:52:24;102028.94;;;30.06;25.89
3082;BME280;1551;51.046;7.010;2022-08-06T12:55:17;102022.88;;;30.42;25.61
3082;BME280;1551;51.046;7.010;2022-08-06T12:58:07;102020.53;;;30.74;24.99
3082;BME280;1551;51.046;7.010;2022-08-06T13:00:59;102020.84;;;30.69;24.56
3082;BME280;1551;51.046;7.010;2022-08-06T13:03:54;102011.38;;;30.67;25.70
3082;BME280;1551;51.046;7.010;2022-08-06T13:06:45;102014.50;;;30.72;25.44
3082;BME280;1551;51.046;7.010;2022-08-06T13:09:34;102021.47;;;30.73;23.95
3082;BME280;1551;51.046;7.010;2022-08-06T13:12:23;102012.97;;;30.33;25.70
3082;BME280;1551;51.046;7.010;2022-08-06T13:15:13;102007.66;;;30.20;25.50
3082;BME280;1551;51.046;7.010;2022-08-06T13:18:09;102010.66;;;29.01;26.78
3082;BME280;1551;51.046;7.010;2022-08-06T13:20:59;102013.09;;;29.43;26.60
3082;BME280;1551;51.046;7.010;2022-08-06T13:23:51;102003.78;;;29.50;26.32
3082;BME280;1551;51.046;7.010;2022-08-06T13:26:49;101999.69;;;29.59;25.90
3082;BME280;1551;51.046;7.010;2022-08-06T13:29:58;102007.81;;;29.56;26.27
3082;BME280;1551;51.046;7.010;2022-08-06T13:32:47;102004.31;;;29.30;26.51
3082;BME280;1551;51.046;7.010;2022-08-06T13:35:37;101994.59;;;29.18;26.77
3082;BME280;1551;51.046;7.010;2022-08-06T13:38:30;101996.66;;;29.13;26.53
3082;BME280;1551;51.046;7.010;2022-08-06T13:41:27;101985.94;;;28.89;26.76
3082;BME280;1551;51.046;7.010;2022-08-06T13:44:29;101991.00;;;29.32;26.32
3082;BME280;1551;51.046;7.010;2022-08-06T13:47:26;101977.59;;;29.47;25.87
3082;BME280;1551;51.046;7.010;2022-08-06T13:50:17;101979.81;;;29.41;26.05
3082;BME280;1551;51.046;7.010;2022-08-06T13:53:07;101975.84;;;29.60;25.59
3082;BME280;1551;51.046;7.010;2022-08-06T13:55:57;101983.22;;;29.68;25.57
3082;BME280;1551;51.046;7.010;2022-08-06T13:58:46;101968.22;;;29.93;26.24
3082;BME280;1551;51.046;7.010;2022-08-06T14:01:35;101975.09;;;29.83;25.83
3082;BME280;1551;51.046;7.010;2022-08-06T14:04:24;101971.41;;;29.48;26.54
3082;BME280;1551;51.046;7.010;2022-08-06T14:07:13;101964.78;;;28.64;27.14
3082;BME280;1551;51.046;7.010;2022-08-06T14:10:02;101958.41;;;27.57;27.47
3082;BME280;1551;51.046;7.010;2022-08-06T14:12:51;101966.25;;;26.99;28.31
3082;BME280;1551;51.046;7.010;2022-08-06T14:15:59;101965.53;;;26.66;28.18
3082;BME280;1551;51.046;7.010;2022-08-06T14:18:49;101956.44;;;27.16;28.40
3082;BME280;1551;51.046;7.010;2022-08-06T14:21:38;101958.88;;;27.49;28.05
3082;BME280;1551;51.046;7.010;2022-08-06T14:24:27;101961.41;;;28.07;27.99
3082;BME280;1551;51.046;7.010;2022-08-06T14:27:16;101953.03;;;28.15;27.98
3082;BME280;1551;51.046;7.010;2022-08-06T14:30:05;101950.97;;;28.20;26.74
3082;BME280;1551;51.046;7.010;2022-08-06T14:32:55;101957.72;;;27.95;27.66
3082;BME280;1551;51.046;7.010;2022-08-06T14:35:44;101956.03;;;28.23;26.98
3082;BME280;1551;51.046;7.010;2022-08-06T14:38:32;101950.25;;;28.30;26.87
3082;BME280;1551;51.046;7.010;2022-08-06T14:41:22;101944.22;;;27.87;27.48
3082;BME280;1551;51.046;7.010;2022-08-06T14:44:30;101950.59;;;27.98;28.21
3082;BME280;1551;51.046;7.010;2022-08-06T14:47:38;101950.16;;;28.05;26.94
3082;BME280;1551;51.046;7.010;2022-08-06T14:50:27;101945.28;;;27.99;27.04
3082;BME280;1551;51.046;7.010;2022-08-06T14:53:16;101942.69;;;27.98;27.83
3082;BME280;1551;51.046;7.010;2022-08-06T14:56:05;101946.56;;;27.50;28.09
3082;BME280;1551;51.046;7.010;2022-08-06T14:58:54;101938.13;;;27.15;27.54
3082;BME280;1551;51.046;7.010;2022-08-06T15:01:44;101947.47;;;26.91;28.54
3082;BME280;1551;51.046;7.010;2022-08-06T15:04:34;101931.50;;;26.48;28.97
3082;BME280;1551;51.046;7.010;2022-08-06T15:07:23;101930.25;;;26.40;28.56
3082;BME280;1551;51.046;7.010;2022-08-06T15:10:12;101921.34;;;26.27;29.67
3082;BME280;1551;51.046;7.010;2022-08-06T15:13:03;101926.56;;;25.95;30.02
3082;BME280;1551;51.046;7.010;2022-08-06T15:15:52;101929.06;;;25.81;30.54
3082;BME280;1551;51.046;7.010;2022-08-06T15:18:41;101917.25;;;25.90;29.68
3082;BME280;1551;51.046;7.010;2022-08-06T15:21:31;101910.25;;;26.37;29.21
3082;BME280;1551;51.046;7.010;2022-08-06T15:24:21;101909.41;;;26.37;29.92
3082;BME280;1551;51.046;7.010;2022-08-06T15:27:11;101905.84;;;26.22;29.57
3082;BME280;1551;51.046;7.010;2022-08-06T15:30:00;101912.53;;;26.43;29.90
3082;BME280;1551;51.046;7.010;2022-08-06T15:32:50;101906.16;;;26.63;29.47
3082;BME280;1551;51.046;7.010;2022-08-06T15:35:39;101899.75;;;26.83;28.56
3082;BME280;1551;51.046;7.010;2022-08-06T15:38:28;101900.78;;;26.80;29.05
3082;BME280;1551;51.046;7.010;2022-08-06T15:41:17;101901.44;;;26.84;29.50
3082;BME280;1551;51.046;7.010;2022-08-06T15:44:06;101897.72;;;26.72;29.44
3082;BME280;1551;51.046;7.010;2022-08-06T15:46:57;101897.19;;;26.51;29.13
3082;BME280;1551;51.046;7.010;2022-08-06T15:49:46;101895.59;;;26.33;29.32
3082;BME280;1551;51.046;7.010;2022-08-06T15:52:35;101894.63;;;26.50;28.93
3082;BME280;1551;51.046;7.010;2022-08-06T15:55:24;101896.75;;;26.43;29.69
3082;BME280;1551;51.046;7.010;2022-08-06T15:58:13;101884.38;;;26.45;30.04
3082;BME280;1551;51.046;7.010;2022-08-06T16:01:03;101885.41;;;26.58;28.25
3082;BME280;1551;51.046;7.010;2022-08-06T16:03:52;101885.03;;;26.65;29.60